sensor_id;sensor_type;location;lat;lon;timestamp;pressure;altitude;pressure_sealevel;temperature;humidity
5283;BME280;15376;48.540;9.268;2023-03-13T00:01:47;97052.75;;;8.10;100.00
5283;BME280;15376;48.540;9.268;2023-03-13T00:04:13;97050.41;;;7.92;100.00
5283;BME280;15376;48.540;9.268;2023-03-13T00:06:38;97044.03;;;8.01;100.00
5283;BME280;15376;48.540;9.268;2023-03-13T00:09:06;97057.22;;;8.09;100.00
5283;BME280;15376;48.540;9.268;2023-03-13T00:11:32;97044.44;;;7.98;100.00
5283;BME280;15376;48.540;9.268;2023-03-13T00:13:59;97031.94;;;8.07;100.00
5283;BME280;15376;48.540;9.268;2023-03-13T00:16:25;97040.50;;;8.31;100.00
5283;BME280;15376;48.540;9.268;2023-03-13T00:18:53;97042.00;;;8.49;100.00
5283;BME280;15376;48.540;9.268;2023-03-13T00:21:21;97044.66;;;8.49;100.00
5283;BME280;15376;48.540;9.268;2023-03-13T00:23:46;97042.81;;;8.49;100.00
5283;BME280;15376;48.540;9.268;2023-03-13T00:26:15;97036.72;;;8.49;100.00
5283;BME280;15376;48.540;9.268;2023-03-13T00:28:42;97004.38;;;8.24;100.00
5283;BME280;15376;48.540;9.268;2023-03-13T00:31:10;97028.84;;;8.41;100.00
5283;BME280;15376;48.540;9.268;2023-03-13T00:33:37;97034.13;;;8.41;100.00
5283;BME280;15376;48.540;9.268;2023-03-13T00:36:06;97038.19;;;8.37;100.00
5283;BME280;15376;48.540;9.268;2023-03-13T00:38:33;97035.22;;;8.31;100.00
5283;BME280;15376;48.540;9.268;2023-03-13T00:41:06;97040.38;;;8.25;100.00
5283;BME280;15376;48.540;9.268;2023-03-13T00:43:32;97045.00;;;8.08;100.00
5283;BME280;15376;48.540;9.268;2023-03-13T00:45:58;97039.50;;;7.95;100.00
5283;BME280;15376;48.540;9.268;2023-03-13T00:48:23;97041.19;;;7.88;100.00
5283;BME280;15376;48.540;9.268;2023-03-13T00:50:49;97044.53;;;7.82;100.00
5283;BME280;15376;48.540;9.268;2023-03-13T00:53:15;97037.13;;;7.77;100.00
5283;BME280;15376;48.540;9.268;2023-03-13T00:56:00;97030.78;;;7.63;100.00
5283;BME280;15376;48.540;9.268;2023-03-13T00:58:27;97035.91;;;7.65;100.00
5283;BME280;15376;48.540;9.268;2023-03-13T01:00:53;97023.03;;;7.62;100.00
5283;BME280;15376;48.540;9.268;2023-03-13T01:03:20;97029.13;;;7.62;100.00
5283;BME280;15376;48.540;9.268;2023-03-13T01:05:57;97027.16;;;7.64;100.00
5283;BME280;15376;48.540;9.268;2023-03-13T01:08:23;97028.09;;;7.72;100.00
5283;BME280;15376;48.540;9.268;2023-03-13T01:10:48;96980.66;;;7.55;100.00
5283;BME280;15376;48.540;9.268;2023-03-13T01:13:14;97015.22;;;7.68;100.00
5283;BME280;15376;48.540;9.268;2023-03-13T01:15:39;97002.72;;;7.62;100.00
5283;BME280;15376;48.540;9.268;2023-03-13T01:18:05;96997.66;;;7.76;100.00
5283;BME280;15376;48.540;9.268;2023-03-13T01:20:30;96984.03;;;7.64;100.00
5283;BME280;15376;48.540;9.268;2023-03-13T01:22:56;96995.44;;;7.64;100.00
5283;BME280;15376;48.540;9.268;2023-03-13T01:25:21;96990.88;;;7.58;100.00
5283;BME280;15376;48.540;9.268;2023-03-13T01:27:46;96975.78;;;7.44;100.00
5283;BME280;15376;48.540;9.268;2023-03-13T01:30:12;96973.50;;;7.41;100.00
5283;BME280;15376;48.540;9.268;2023-03-13T01:32:37;96972.31;;;7.44;100.00
5283;BME280;15376;48.540;9.268;2023-03-13T01:35:02;96966.25;;;7.35;100.00
5283;BME280;15376;48.540;9.268;2023-03-13T01:37:28;96973.78;;;7.46;100.00
5283;BME280;15376;48.540;9.268;2023-03-13T01:39:53;96966.19;;;7.66;100.00
5283;BME280;15376;48.540;9.268;2023-03-13T01:42:18;96963.03;;;7.70;100.00
5283;BME280;15376;48.540;9.268;2023-03-13T01:45:02;96963.66;;;8.10;100.00
5283;BME280;15376;48.540;9.268;2023-03-13T01:47:27;96959.44;;;8.39;100.00
5283;BME280;15376;48.540;9.268;2023-03-13T01:49:53;96954.50;;;8.65;100.00
5283;BME280;15376;48.540;9.268;2023-03-13T01:52:24;96954.38;;;8.88;100.00
5283;BME280;15376;48.540;9.268;2023-03-13T01:54:56;96945.59;;;8.87;100.00
5283;BME280;15376;48.540;9.268;2023-03-13T01:57:29;96940.38;;;9.09;100.00
5283;BME280;15376;48.540;9.268;2023-03-13T02:00:10;96935.34;;;9.14;100.00
5283;BME280;15376;48.540;9.268;2023-03-13T02:02:40;96925.19;;;9.17;100.00
5283;BME280;15376;48.540;9.268;2023-03-13T02:05:07;96916.47;;;9.23;100.00
5283;BME280;15376;48.540;9.268;2023-03-13T02:07:40;96909.22;;;9.32;100.00
5283;BME280;15376;48.540;9.268;2023-03-13T02:10:08;96898.81;;;9.30;100.00
5283;BME280;15376;48.540;9.268;2023-03-13T02:12:38;96904.88;;;9.46;100.00
5283;BME280;15376;48.540;9.268;2023-03-13T02:15:24;96905.06;;;9.44;100.00
5283;BME280;15376;48.540;9.268;2023-03-13T02:17:51;96886.00;;;9.34;100.00
5283;BME280;15376;48.540;9.268;2023-03-13T02:20:19;96896.59;;;9.55;100.00
5283;BME280;15376;48.540;9.268;2023-03-13T02:23:21;96901.47;;;9.52;100.00
5283;BME280;15376;48.540;9.268;2023-03-13T02:25:50;96882.75;;;9.60;100.00
5283;BME280;15376;48.540;9.268;2023-03-13T02:28:26;96892.03;;;9.70;100.00
5283;BME280;15376;48.540;9.268;2023-03-13T02:30:54;96889.16;;;9.93;100.00
5283;BME280;15376;48.540;9.268;2023-03-13T02:33:21;96890.41;;;9.97;100.00
5283;BME280;15376;48.540;9.268;2023-03-13T02:35:50;96887.13;;;9.95;100.00
5283;BME280;15376;48.540;9.268;2023-03-13T02:38:21;96884.28;;;9.97;100.00
5283;BME280;15376;48.540;9.268;2023-03-13T02:40:49;96873.66;;;9.97;100.00
5283;BME280;15376;48.540;9.268;2023-03-13T02:43:23;96872.59;;;10.19;100.00
5283;BME280;15376;48.540;9.268;2023-03-13T02:48:35;96853.31;;;10.11;100.00
5283;BME280;15376;48.540;9.268;2023-03-13T02:51:04;96864.44;;;10.21;100.00
5283;BME280;15376;48.540;9.268;2023-03-13T02:53:30;96851.50;;;10.11;100.00
5283;BME280;15376;48.540;9.268;2023-03-13T02:55:56;96862.72;;;10.13;100.00
5283;BME280;15376;48.540;9.268;2023-03-13T02:58:23;96844.91;;;10.28;100.00
5283;BME280;15376;48.540;9.268;2023-03-13T03:00:49;96850.44;;;10.33;100.00
5283;BME280;15376;48.540;9.268;2023-03-13T03:03:14;96839.69;;;10.55;100.00
5283;BME280;15376;48.540;9.268;2023-03-13T03:05:40;96816.03;;;10.60;100.00
5283;BME280;15376;48.540;9.268;2023-03-13T03:08:05;96835.84;;;10.64;100.00
5283;BME280;15376;48.540;9.268;2023-03-13T03:10:31;96815.59;;;10.56;100.00
5283;BME280;15376;48.540;9.268;2023-03-13T03:12:56;96821.91;;;10.55;100.00
5283;BME280;15376;48.540;9.268;2023-03-13T03:15:21;96817.66;;;10.61;100.00
5283;BME280;15376;48.540;9.268;2023-03-13T03:17:47;96807.22;;;10.59;100.00
5283;BME280;15376;48.540;9.268;2023-03-13T03:20:13;96804.44;;;10.74;100.00
5283;BME280;15376;48.540;9.268;2023-03-13T03:22:38;96814.47;;;10.98;98.62
5283;BME280;15376;48.540;9.268;2023-03-13T03:25:06;96809.56;;;10.95;98.32
5283;BME280;15376;48.540;9.268;2023-03-13T03:27:31;96812.84;;;11.04;97.23
5283;BME280;15376;48.540;9.268;2023-03-13T03:29:57;96798.13;;;11.01;96.76
5283;BME280;15376;48.540;9.268;2023-03-13T03:32:22;96802.25;;;11.11;95.91
5283;BME280;15376;48.540;9.268;2023-03-13T03:34:47;96789.75;;;11.05;95.61
5283;BME280;15376;48.540;9.268;2023-03-13T03:37:13;96776.69;;;11.03;95.48
5283;BME280;15376;48.540;9.268;2023-03-13T03:39:38;96773.59;;;10.99;96.38
5283;BME280;15376;48.540;9.268;2023-03-13T03:42:04;96777.69;;;11.02;95.53
5283;BME280;15376;48.540;9.268;2023-03-13T03:44:29;96775.47;;;11.06;95.28
5283;BME280;15376;48.540;9.268;2023-03-13T03:46:54;96786.69;;;11.21;94.91
5283;BME280;15376;48.540;9.268;2023-03-13T03:49:20;96787.09;;;11.24;94.60
5283;BME280;15376;48.540;9.268;2023-03-13T03:51:45;96800.19;;;11.26;94.87
5283;BME280;15376;48.540;9.268;2023-03-13T03:54:11;96794.06;;;11.25;94.90
5283;BME280;15376;48.540;9.268;2023-03-13T03:56:36;96798.75;;;11.30;95.32
5283;BME280;15376;48.540;9.268;2023-03-13T03:59:01;96803.47;;;11.28;95.61
5283;BME280;15376;48.540;9.268;2023-03-13T04:01:26;96778.53;;;11.09;95.92
5283;BME280;15376;48.540;9.268;2023-03-13T04:03:52;96796.53;;;11.14;96.61
5283;BME280;15376;48.540;9.268;2023-03-13T04:06:17;96803.88;;;11.12;97.05
5283;BME280;15376;48.540;9.268;2023-03-13T04:08:43;96789.75;;;11.05;97.45
5283;BME280;15376;48.540;9.268;2023-03-13T04:11:08;96789.34;;;11.01;98.34
5283;BME280;15376;48.540;9.268;2023-03-13T04:13:33;96781.34;;;10.88;99.55
5283;BME280;15376;48.540;9.268;2023-03-13T04:15:59;96792.81;;;11.01;99.44
5283;BME280;15376;48.540;9.268;2023-03-13T04:18:24;96787.72;;;11.00;100.00
5283;BME280;15376;48.540;9.268;2023-03-13T04:20:49;96789.53;;;10.99;100.00
5283;BME280;15376;48.540;9.268;2023-03-13T04:23:15;96788.72;;;10.92;100.00
5283;BME280;15376;48.540;9.268;2023-03-13T04:25:40;96790.94;;;10.82;100.00
5283;BME280;15376;48.540;9.268;2023-03-13T04:28:05;96788.72;;;10.79;100.00
5283;BME280;15376;48.540;9.268;2023-03-13T04:30:31;96781.34;;;10.81;100.00
5283;BME280;15376;48.540;9.268;2023-03-13T04:32:56;96779.72;;;10.87;100.00
5283;BME280;15376;48.540;9.268;2023-03-13T04:35:21;96785.25;;;10.79;100.00
5283;BME280;15376;48.540;9.268;2023-03-13T04:37:47;96776.63;;;10.83;100.00
5283;BME280;15376;48.540;9.268;2023-03-13T04:40:12;96774.19;;;10.82;100.00
5283;BME280;15376;48.540;9.268;2023-03-13T04:42:39;96757.44;;;10.81;100.00
5283;BME280;15376;48.540;9.268;2023-03-13T04:45:06;96749.06;;;10.84;100.00
5283;BME280;15376;48.540;9.268;2023-03-13T04:47:31;96749.91;;;10.78;100.00
5283;BME280;15376;48.540;9.268;2023-03-13T04:49:57;96760.91;;;10.82;100.00
5283;BME280;15376;48.540;9.268;2023-03-13T04:52:22;96760.31;;;10.86;100.00
5283;BME280;15376;48.540;9.268;2023-03-13T04:54:47;96736.81;;;10.70;100.00
5283;BME280;15376;48.540;9.268;2023-03-13T04:57:15;96759.69;;;10.78;100.00
5283;BME280;15376;48.540;9.268;2023-03-13T04:59:40;96765.41;;;10.81;100.00
5283;BME280;15376;48.540;9.268;2023-03-13T05:02:06;96759.50;;;10.79;100.00
5283;BME280;15376;48.540;9.268;2023-03-13T05:04:31;96753.75;;;10.69;100.00
5283;BME280;15376;48.540;9.268;2023-03-13T05:06:56;96757.59;;;10.60;100.00
5283;BME280;15376;48.540;9.268;2023-03-13T05:09:21;96750.66;;;10.52;100.00
5283;BME280;15376;48.540;9.268;2023-03-13T05:11:47;96755.56;;;10.62;100.00
5283;BME280;15376;48.540;9.268;2023-03-13T05:14:14;96741.06;;;10.58;100.00
5283;BME280;15376;48.540;9.268;2023-03-13T05:16:39;96750.66;;;10.59;100.00
5283;BME280;15376;48.540;9.268;2023-03-13T05:19:05;96746.78;;;10.55;100.00
5283;BME280;15376;48.540;9.268;2023-03-13T05:21:30;96733.06;;;10.45;100.00
5283;BME280;15376;48.540;9.268;2023-03-13T05:23:55;96744.09;;;10.48;100.00
5283;BME280;15376;48.540;9.268;2023-03-13T05:26:21;96744.69;;;10.44;100.00
5283;BME280;15376;48.540;9.268;2023-03-13T05:28:47;96752.25;;;10.33;100.00
5283;BME280;15376;48.540;9.268;2023-03-13T05:31:12;96753.06;;;10.34;100.00
5283;BME280;15376;48.540;9.268;2023-03-13T05:33:37;96765.72;;;10.32;100.00
5283;BME280;15376;48.540;9.268;2023-03-13T05:36:03;96755.91;;;10.32;100.00
5283;BME280;15376;48.540;9.268;2023-03-13T05:38:28;96755.13;;;10.39;100.00
5283;BME280;15376;48.540;9.268;2023-03-13T05:40:54;96757.19;;;10.56;100.00
5283;BME280;15376;48.540;9.268;2023-03-13T05:43:19;96750.84;;;10.51;100.00
5283;BME280;15376;48.540;9.268;2023-03-13T05:45:44;96759.69;;;10.71;100.00
5283;BME280;15376;48.540;9.268;2023-03-13T05:48:09;96742.13;;;10.96;100.00
5283;BME280;15376;48.540;9.268;2023-03-13T05:50:35;96748.47;;;11.15;100.00
5283;BME280;15376;48.540;9.268;2023-03-13T05:53:00;96751.53;;;11.25;100.00
5283;BME280;15376;48.540;9.268;2023-03-13T05:55:26;96744.16;;;11.21;100.00
5283;BME280;15376;48.540;9.268;2023-03-13T05:57:51;96747.84;;;11.26;100.00
5283;BME280;15376;48.540;9.268;2023-03-13T06:00:17;96753.16;;;11.40;100.00
5283;BME280;15376;48.540;9.268;2023-03-13T06:02:43;96719.63;;;11.45;100.00
5283;BME280;15376;48.540;9.268;2023-03-13T06:05:09;96725.56;;;11.47;100.00
5283;BME280;15376;48.540;9.268;2023-03-13T06:07:34;96744.56;;;11.57;100.00
5283;BME280;15376;48.540;9.268;2023-03-13T06:10:00;96730.47;;;11.50;100.00
5283;BME280;15376;48.540;9.268;2023-03-13T06:12:25;96713.91;;;11.48;100.00
5283;BME280;15376;48.540;9.268;2023-03-13T06:14:51;96723.09;;;11.52;100.00
5283;BME280;15376;48.540;9.268;2023-03-13T06:17:16;96737.78;;;11.61;100.00
5283;BME280;15376;48.540;9.268;2023-03-13T06:19:42;96728.75;;;11.69;100.00
5283;BME280;15376;48.540;9.268;2023-03-13T06:22:07;96716.69;;;11.66;100.00
5283;BME280;15376;48.540;9.268;2023-03-13T06:24:32;96715.88;;;11.73;100.00
5283;BME280;15376;48.540;9.268;2023-03-13T06:26:58;96725.69;;;11.85;100.00
5283;BME280;15376;48.540;9.268;2023-03-13T06:29:23;96717.91;;;11.90;100.00
5283;BME280;15376;48.540;9.268;2023-03-13T06:31:49;96721.38;;;11.97;100.00
5283;BME280;15376;48.540;9.268;2023-03-13T06:34:15;96716.25;;;11.96;100.00
5283;BME280;15376;48.540;9.268;2023-03-13T06:36:40;96723.84;;;11.86;100.00
5283;BME280;15376;48.540;9.268;2023-03-13T06:39:06;96746.50;;;12.01;100.00
5283;BME280;15376;48.540;9.268;2023-03-13T06:41:32;96734.00;;;12.09;100.00
5283;BME280;15376;48.540;9.268;2023-03-13T06:43:57;96729.91;;;12.06;100.00
5283;BME280;15376;48.540;9.268;2023-03-13T06:46:23;96739.09;;;12.10;100.00
5283;BME280;15376;48.540;9.268;2023-03-13T06:48:49;96726.38;;;12.19;100.00
5283;BME280;15376;48.540;9.268;2023-03-13T06:51:17;96750.09;;;12.27;100.00
5283;BME280;15376;48.540;9.268;2023-03-13T06:53:42;96748.47;;;12.26;100.00
5283;BME280;15376;48.540;9.268;2023-03-13T06:56:08;96748.06;;;12.22;100.00
5283;BME280;15376;48.540;9.268;2023-03-13T06:58:34;96732.53;;;12.19;100.00
5283;BME280;15376;48.540;9.268;2023-03-13T07:01:11;96735.75;;;12.28;100.00
5283;BME280;15376;48.540;9.268;2023-03-13T07:03:37;96733.31;;;12.26;100.00
5283;BME280;15376;48.540;9.268;2023-03-13T07:06:03;96731.66;;;12.32;100.00
5283;BME280;15376;48.540;9.268;2023-03-13T07:08:29;96726.72;;;12.35;100.00
5283;BME280;15376;48.540;9.268;2023-03-13T07:11:00;96715.66;;;12.39;100.00
5283;BME280;15376;48.540;9.268;2023-03-13T07:13:27;96721.81;;;12.32;100.00
5283;BME280;15376;48.540;9.268;2023-03-13T07:15:52;96725.03;;;12.41;100.00
5283;BME280;15376;48.540;9.268;2023-03-13T07:18:19;96736.50;;;12.42;100.00
5283;BME280;15376;48.540;9.268;2023-03-13T07:20:44;96729.50;;;12.47;100.00
5283;BME280;15376;48.540;9.268;2023-03-13T07:23:15;96740.38;;;12.46;100.00
5283;BME280;15376;48.540;9.268;2023-03-13T07:25:40;96749.78;;;12.48;100.00
5283;BME280;15376;48.540;9.268;2023-03-13T07:28:06;96765.34;;;12.51;100.00
5283;BME280;15376;48.540;9.268;2023-03-13T07:30:31;96737.38;;;12.35;100.00
5283;BME280;15376;48.540;9.268;2023-03-13T07:32:57;96752.22;;;12.50;100.00
5283;BME280;15376;48.540;9.268;2023-03-13T07:35:22;96743.59;;;12.54;100.00
5283;BME280;15376;48.540;9.268;2023-03-13T07:37:48;96752.34;;;12.68;100.00
5283;BME280;15376;48.540;9.268;2023-03-13T07:40:13;96746.59;;;12.71;100.00
5283;BME280;15376;48.540;9.268;2023-03-13T07:42:39;96735.09;;;12.77;100.00
5283;BME280;15376;48.540;9.268;2023-03-13T07:45:06;96741.72;;;12.93;100.00
5283;BME280;15376;48.540;9.268;2023-03-13T07:47:35;96744.13;;;13.01;100.00
5283;BME280;15376;48.540;9.268;2023-03-13T07:50:01;96743.00;;;13.15;100.00
5283;BME280;15376;48.540;9.268;2023-03-13T07:52:26;96734.00;;;13.16;100.00
5283;BME280;15376;48.540;9.268;2023-03-13T07:54:53;96749.06;;;13.29;100.00
5283;BME280;15376;48.540;9.268;2023-03-13T07:57:18;96732.47;;;13.27;100.00
5283;BME280;15376;48.540;9.268;2023-03-13T07:59:43;96736.00;;;13.21;100.00
5283;BME280;15376;48.540;9.268;2023-03-13T08:02:11;96730.44;;;13.22;100.00
5283;BME280;15376;48.540;9.268;2023-03-13T08:04:38;96738.44;;;13.22;100.00
5283;BME280;15376;48.540;9.268;2023-03-13T08:07:07;96728.25;;;13.19;100.00
5283;BME280;15376;48.540;9.268;2023-03-13T08:09:33;96720.00;;;13.21;100.00
5283;BME280;15376;48.540;9.268;2023-03-13T08:11:58;96710.38;;;13.20;100.00
5283;BME280;15376;48.540;9.268;2023-03-13T08:14:23;96721.94;;;13.32;100.00
5283;BME280;15376;48.540;9.268;2023-03-13T08:16:49;96712.97;;;13.26;100.00
5283;BME280;15376;48.540;9.268;2023-03-13T08:19:14;96714.56;;;13.34;100.00
5283;BME280;15376;48.540;9.268;2023-03-13T08:21:39;96713.75;;;13.33;100.00
5283;BME280;15376;48.540;9.268;2023-03-13T08:24:07;96706.38;;;13.29;100.00
5283;BME280;15376;48.540;9.268;2023-03-13T08:26:34;96707.84;;;13.25;100.00
5283;BME280;15376;48.540;9.268;2023-03-13T08:29:02;96700.84;;;13.30;100.00
5283;BME280;15376;48.540;9.268;2023-03-13T08:31:31;96685.41;;;13.57;100.00
5283;BME280;15376;48.540;9.268;2023-03-13T08:33:56;96688.50;;;13.73;100.00
5283;BME280;15376;48.540;9.268;2023-03-13T08:36:25;96675.53;;;13.76;100.00
5283;BME280;15376;48.540;9.268;2023-03-13T08:38:52;96621.97;;;13.59;100.00
5283;BME280;15376;48.540;9.268;2023-03-13T08:41:25;96641.06;;;13.93;99.23
5283;BME280;15376;48.540;9.268;2023-03-13T08:43:53;96624.75;;;13.83;99.31
5283;BME280;15376;48.540;9.268;2023-03-13T08:46:18;96655.94;;;14.00;99.34
5283;BME280;15376;48.540;9.268;2023-03-13T08:48:44;96640.28;;;14.04;98.91
5283;BME280;15376;48.540;9.268;2023-03-13T08:51:14;96642.38;;;14.02;98.80
5283;BME280;15376;48.540;9.268;2023-03-13T08:53:41;96640.72;;;14.01;98.32
5283;BME280;15376;48.540;9.268;2023-03-13T08:56:08;96628.63;;;13.87;98.47
5283;BME280;15376;48.540;9.268;2023-03-13T08:58:34;96606.84;;;13.72;99.27
5283;BME280;15376;48.540;9.268;2023-03-13T09:01:01;96634.69;;;13.94;99.57
5283;BME280;15376;48.540;9.268;2023-03-13T09:03:27;96639.09;;;14.00;99.03
5283;BME280;15376;48.540;9.268;2023-03-13T09:05:53;96650.53;;;14.07;98.55
5283;BME280;15376;48.540;9.268;2023-03-13T09:08:18;96644.72;;;14.10;98.73
5283;BME280;15376;48.540;9.268;2023-03-13T09:10:43;96641.03;;;14.11;99.59
5283;BME280;15376;48.540;9.268;2023-03-13T09:13:09;96643.16;;;14.21;98.84
5283;BME280;15376;48.540;9.268;2023-03-13T09:15:34;96629.00;;;14.20;98.44
5283;BME280;15376;48.540;9.268;2023-03-13T09:17:59;96649.00;;;14.29;98.15
5283;BME280;15376;48.540;9.268;2023-03-13T09:20:25;96666.91;;;14.41;97.69
5283;BME280;15376;48.540;9.268;2023-03-13T09:22:50;96662.72;;;14.63;97.50
5283;BME280;15376;48.540;9.268;2023-03-13T09:25:19;96654.97;;;14.73;96.05
5283;BME280;15376;48.540;9.268;2023-03-13T09:27:44;96663.94;;;15.02;94.68
5283;BME280;15376;48.540;9.268;2023-03-13T09:30:10;96667.44;;;15.61;92.24
5283;BME280;15376;48.540;9.268;2023-03-13T09:32:35;96658.19;;;16.32;88.44
5283;BME280;15376;48.540;9.268;2023-03-13T09:35:00;96668.84;;;17.22;84.60
5283;BME280;15376;48.540;9.268;2023-03-13T09:37:26;96667.19;;;17.72;80.40
5283;BME280;15376;48.540;9.268;2023-03-13T09:39:51;96659.91;;;17.89;78.43
5283;BME280;15376;48.540;9.268;2023-03-13T09:42:20;96662.72;;;18.70;75.48
5283;BME280;15376;48.540;9.268;2023-03-13T09:44:54;96664.41;;;19.92;70.36
5283;BME280;15376;48.540;9.268;2023-03-13T09:47:28;96658.91;;;19.72;65.62
5283;BME280;15376;48.540;9.268;2023-03-13T09:50:03;96673.66;;;18.90;68.65
5283;BME280;15376;48.540;9.268;2023-03-13T09:52:34;96662.44;;;18.00;70.25
5283;BME280;15376;48.540;9.268;2023-03-13T09:55:12;96654.88;;;16.87;76.31
5283;BME280;15376;48.540;9.268;2023-03-13T09:57:48;96639.63;;;17.04;75.68
5283;BME280;15376;48.540;9.268;2023-03-13T10:02:56;96671.38;;;17.29;76.41
5283;BME280;15376;48.540;9.268;2023-03-13T10:05:27;96652.63;;;16.79;78.79
5283;BME280;15376;48.540;9.268;2023-03-13T10:08:01;96665.59;;;16.70;79.54
5283;BME280;15376;48.540;9.268;2023-03-13T10:10:44;96670.97;;;16.70;78.68
5283;BME280;15376;48.540;9.268;2023-03-13T10:13:22;96671.78;;;16.87;77.65
5283;BME280;15376;48.540;9.268;2023-03-13T10:15:55;96678.31;;;17.08;77.20
5283;BME280;15376;48.540;9.268;2023-03-13T10:18:22;96663.09;;;17.86;72.17
5283;BME280;15376;48.540;9.268;2023-03-13T10:20:55;96675.47;;;17.15;72.04
5283;BME280;15376;48.540;9.268;2023-03-13T10:23:31;96667.25;;;16.71;72.53
5283;BME280;15376;48.540;9.268;2023-03-13T10:25:59;96650.38;;;18.25;68.54
5283;BME280;15376;48.540;9.268;2023-03-13T10:28:24;96657.53;;;19.27;63.31
5283;BME280;15376;48.540;9.268;2023-03-13T10:30:57;96655.41;;;18.43;64.66
5283;BME280;15376;48.540;9.268;2023-03-13T10:33:27;96640.50;;;19.53;63.59
5283;BME280;15376;48.540;9.268;2023-03-13T10:36:10;96636.00;;;20.31;57.10
5283;BME280;15376;48.540;9.268;2023-03-13T10:38:50;96629.88;;;20.92;56.31
5283;BME280;15376;48.540;9.268;2023-03-13T10:41:35;96618.53;;;20.54;55.08
5283;BME280;15376;48.540;9.268;2023-03-13T10:44:05;96624.50;;;21.38;54.34
5283;BME280;15376;48.540;9.268;2023-03-13T10:46:34;96609.13;;;19.84;55.97
5283;BME280;15376;48.540;9.268;2023-03-13T10:49:02;96610.78;;;19.43;58.93
5283;BME280;15376;48.540;9.268;2023-03-13T10:51:39;96584.00;;;19.21;58.02
5283;BME280;15376;48.540;9.268;2023-03-13T10:54:20;96597.50;;;18.89;60.93
5283;BME280;15376;48.540;9.268;2023-03-13T10:56:46;96575.09;;;19.16;60.38
5283;BME280;15376;48.540;9.268;2023-03-13T10:59:30;96579.88;;;19.09;59.80
5283;BME280;15376;48.540;9.268;2023-03-13T11:01:59;96576.28;;;18.61;62.86
5283;BME280;15376;48.540;9.268;2023-03-13T11:04:33;96566.22;;;18.51;62.44
5283;BME280;15376;48.540;9.268;2023-03-13T11:07:13;96554.19;;;18.59;64.38
5283;BME280;15376;48.540;9.268;2023-03-13T11:09:39;96555.84;;;18.60;63.57
5283;BME280;15376;48.540;9.268;2023-03-13T11:12:18;96539.50;;;18.67;63.56
5283;BME280;15376;48.540;9.268;2023-03-13T11:14:44;96556.25;;;19.16;62.86
5283;BME280;15376;48.540;9.268;2023-03-13T11:19:59;96545.56;;;18.57;63.33
5283;BME280;15376;48.540;9.268;2023-03-13T11:25:22;96530.63;;;18.66;63.74
5283;BME280;15376;48.540;9.268;2023-03-13T11:30:57;96531.56;;;18.55;64.09
5283;BME280;15376;48.540;9.268;2023-03-13T11:33:30;96515.88;;;18.42;65.47
5283;BME280;15376;48.540;9.268;2023-03-13T11:36:04;96515.84;;;18.37;64.72
5283;BME280;15376;48.540;9.268;2023-03-13T11:38:47;96509.56;;;18.58;65.27
5283;BME280;15376;48.540;9.268;2023-03-13T11:41:31;96504.75;;;18.60;63.63
5283;BME280;15376;48.540;9.268;2023-03-13T11:44:03;96504.06;;;18.75;63.75
5283;BME280;15376;48.540;9.268;2023-03-13T11:46:58;96491.66;;;18.69;63.99
5283;BME280;15376;48.540;9.268;2023-03-13T12:00:35;96451.34;;;19.36;61.28
5283;BME280;15376;48.540;9.268;2023-03-13T12:05:59;96424.19;;;19.43;59.85
5283;BME280;15376;48.540;9.268;2023-03-13T12:08:43;96420.69;;;19.42;62.54
5283;BME280;15376;48.540;9.268;2023-03-13T12:11:26;96414.97;;;19.18;62.88
5283;BME280;15376;48.540;9.268;2023-03-13T12:14:21;96388.16;;;18.86;62.76
5283;BME280;15376;48.540;9.268;2023-03-13T12:16:54;96382.28;;;18.94;62.96
5283;BME280;15376;48.540;9.268;2023-03-13T12:19:28;96372.09;;;18.96;62.76
5283;BME280;15376;48.540;9.268;2023-03-13T12:21:56;96354.66;;;19.14;62.96
5283;BME280;15376;48.540;9.268;2023-03-13T12:24:34;96354.13;;;19.12;61.33
5283;BME280;15376;48.540;9.268;2023-03-13T12:27:16;96343.09;;;19.19;61.29
5283;BME280;15376;48.540;9.268;2023-03-13T12:29:49;96342.28;;;19.23;60.92
5283;BME280;15376;48.540;9.268;2023-03-13T12:32:25;96343.41;;;19.48;60.83
5283;BME280;15376;48.540;9.268;2023-03-13T12:43:03;96308.13;;;20.00;53.89
5283;BME280;15376;48.540;9.268;2023-03-13T12:45:35;96302.75;;;20.00;54.12
5283;BME280;15376;48.540;9.268;2023-03-13T12:56:19;96274.72;;;20.01;53.66
5283;BME280;15376;48.540;9.268;2023-03-13T12:59:21;96262.91;;;19.82;52.13
5283;BME280;15376;48.540;9.268;2023-03-13T13:01:50;96249.97;;;19.89;51.72
5283;BME280;15376;48.540;9.268;2023-03-13T13:04:23;96243.44;;;20.05;52.11
5283;BME280;15376;48.540;9.268;2023-03-13T13:07:06;96228.63;;;20.08;52.00
5283;BME280;15376;48.540;9.268;2023-03-13T13:10:03;96212.16;;;20.14;50.22
5283;BME280;15376;48.540;9.268;2023-03-13T13:12:44;96215.63;;;20.25;50.54
5283;BME280;15376;48.540;9.268;2023-03-13T13:15:26;96219.00;;;20.61;49.11
5283;BME280;15376;48.540;9.268;2023-03-13T13:18:12;96212.75;;;20.76;48.45
5283;BME280;15376;48.540;9.268;2023-03-13T13:20:40;96203.69;;;20.95;48.88
5283;BME280;15376;48.540;9.268;2023-03-13T13:28:49;96175.25;;;20.74;46.44
5283;BME280;15376;48.540;9.268;2023-03-13T13:34:07;96174.50;;;21.03;46.05
5283;BME280;15376;48.540;9.268;2023-03-13T13:36:57;96168.00;;;21.04;46.39
5283;BME280;15376;48.540;9.268;2023-03-13T13:40:08;96156.09;;;21.10;45.84
5283;BME280;15376;48.540;9.268;2023-03-13T13:47:43;96154.25;;;21.39;46.69
5283;BME280;15376;48.540;9.268;2023-03-13T13:50:21;96145.03;;;21.40;46.34
5283;BME280;15376;48.540;9.268;2023-03-13T13:52:48;96145.25;;;21.15;46.23
5283;BME280;15376;48.540;9.268;2023-03-13T13:58:01;96125.47;;;20.90;47.61
5283;BME280;15376;48.540;9.268;2023-03-13T14:00:37;96122.69;;;21.01;47.67
5283;BME280;15376;48.540;9.268;2023-03-13T14:03:19;96102.81;;;20.86;47.91
5283;BME280;15376;48.540;9.268;2023-03-13T14:05:47;96108.16;;;20.96;47.97
5283;BME280;15376;48.540;9.268;2023-03-13T14:08:24;96097.13;;;21.22;47.09
5283;BME280;15376;48.540;9.268;2023-03-13T14:11:06;96094.00;;;21.39;46.90
5283;BME280;15376;48.540;9.268;2023-03-13T14:13:35;96086.16;;;21.42;47.57
5283;BME280;15376;48.540;9.268;2023-03-13T14:16:20;96086.09;;;21.47;47.73
5283;BME280;15376;48.540;9.268;2023-03-13T14:18:45;96077.81;;;21.10;47.87